Time;durP1;ratioP1;P1;durP2;ratioP2;P2;SDS_P1;SDS_P2;PMS_P1;PMS_P2;Temp;Humidity;BMP_temperature;BMP_pressure;BME280_temperature;BME280_humidity;BME280_pressure;Samples;Min_cycle;Max_cycle;Signal;HPM_P1;HPM_P2
2024/04/01 00:00:31;;;;;;;6.55;1.13;;;;;;;11.91;100.00;96613.19;5035268;28;20104;-77
2024/04/01 00:02:56;;;;;;;6.75;1.20;;;;;;;11.84;100.00;96626.97;5038496;28;20017;-78
2024/04/01 00:05:21;;;;;;;6.38;1.30;;;;;;;11.76;100.00;96629.34;5019093;28;20076;-77
2024/04/01 00:07:49;;;;;;;11.65;1.40;;;;;;;11.79;100.00;96626.94;5032200;28;20030;-78
2024/04/01 00:10:14;;;;;;;5.38;1.10;;;;;;;11.77;100.00;96618.25;5025149;28;20350;-77
2024/04/01 00:12:40;;;;;;;5.65;1.10;;;;;;;11.71;100.00;96603.09;5012146;28;20026;-77
2024/04/01 00:15:05;;;;;;;6.93;1.17;;;;;;;11.61;100.00;96603.03;5021265;28;20235;-78
2024/04/01 00:17:32;;;;;;;3.53;1.00;;;;;;;11.78;100.00;96611.75;5036786;28;20059;-77
2024/04/01 00:19:57;;;;;;;6.88;0.95;;;;;;;11.72;100.00;96595.75;5021116;28;20220;-78
2024/04/01 00:22:23;;;;;;;10.18;1.38;;;;;;;11.72;100.00;96609.31;5040626;28;20053;-77
2024/04/01 00:24:48;;;;;;;5.72;1.08;;;;;;;11.67;100.00;96598.44;5040671;28;20044;-78
2024/04/01 00:27:13;;;;;;;7.38;1.33;;;;;;;11.53;100.00;96598.94;5040573;28;20029;-78
2024/04/01 00:29:39;;;;;;;8.55;1.60;;;;;;;11.47;100.00;96599.97;5036870;28;20037;-78
2024/04/01 00:32:05;;;;;;;4.43;0.88;;;;;;;11.46;100.00;96586.72;5015810;28;20100;-77
2024/04/01 00:34:30;;;;;;;10.23;1.50;;;;;;;11.45;100.00;96588.59;5017159;28;20056;-78
2024/04/01 00:36:55;;;;;;;8.45;1.25;;;;;;;11.40;100.00;96580.47;5003325;28;20025;-78
2024/04/01 00:39:21;;;;;;;9.55;1.20;;;;;;;11.44;100.00;96586.97;5036685;28;20311;-78
2024/04/01 00:41:46;;;;;;;7.07;1.00;;;;;;;11.39;100.00;96573.41;5013794;28;20029;-77
2024/04/01 00:44:11;;;;;;;9.77;1.50;;;;;;;11.47;100.00;96577.50;5020289;28;20348;-77
2024/04/01 00:46:37;;;;;;;6.65;1.50;;;;;;;11.40;100.00;96547.97;5021248;28;20023;-78
2024/04/01 00:49:02;;;;;;;9.05;1.00;;;;;;;11.55;100.00;96572.41;5038151;28;20079;-77
2024/04/01 00:51:28;;;;;;;7.43;1.27;;;;;;;11.48;100.00;96557.47;5017921;28;20056;-78
2024/04/01 00:53:54;;;;;;;9.77;1.60;;;;;;;11.54;100.00;96561.84;5042350;28;20025;-78
2024/04/01 00:56:22;;;;;;;6.43;0.95;;;;;;;11.54;100.00;96542.88;5026704;28;20037;-77
2024/04/01 00:58:50;;;;;;;6.47;1.02;;;;;;;11.55;100.00;96542.63;5038662;28;20049;-78
2024/04/01 01:01:15;;;;;;;11.00;1.52;;;;;;;11.67;100.00;96536.97;5039317;28;20320;-78
2024/04/01 01:03:41;;;;;;;10.55;1.60;;;;;;;11.60;100.00;96522.84;5024410;28;20092;-78
2024/04/01 01:06:11;;;;;;;6.10;1.27;;;;;;;11.42;100.00;96491.63;5022074;28;20029;-78
2024/04/01 01:08:36;;;;;;;8.27;1.33;;;;;;;11.52;100.00;96497.09;5022251;28;20332;-78
2024/04/01 01:11:04;;;;;;;7.18;1.38;;;;;;;11.46;100.00;96489.25;5037585;28;20025;-77
2024/04/01 01:13:30;;;;;;;3.17;1.02;;;;;;;11.41;100.00;96482.72;5019777;28;20186;-78
2024/04/01 01:15:55;;;;;;;8.40;1.30;;;;;;;11.37;100.00;96473.50;5040320;28;20045;-77
2024/04/01 01:18:20;;;;;;;9.85;1.33;;;;;;;11.39;100.00;96478.63;5040234;28;20029;-77
2024/04/01 01:20:46;;;;;;;9.30;1.40;;;;;;;11.35;100.00;96464.03;5037330;28;20025;-77
2024/04/01 01:23:11;;;;;;;6.75;1.45;;;;;;;11.37;100.00;96449.16;5020104;28;20025;-77
2024/04/01 01:25:37;;;;;;;6.10;1.05;;;;;;;11.48;100.00;96455.41;5034762;28;20021;-78
2024/04/01 01:28:05;;;;;;;6.65;1.00;;;;;;;11.34;100.00;96425.31;5022848;28;20036;-78
2024/04/01 01:30:31;;;;;;;8.02;1.33;;;;;;;11.31;100.00;96414.19;5042082;28;20142;-77
2024/04/01 01:32:58;;;;;;;3.67;1.50;;;;;;;11.28;100.00;96403.91;5039598;28;20358;-78
2024/04/01 01:35:28;;;;;;;6.25;1.23;;;;;;;11.23;100.00;96403.88;5042759;28;20198;-78
2024/04/01 01:37:53;;;;;;;7.32;1.05;;;;;;;11.32;100.00;96432.06;5045570;28;20025;-77
2024/04/01 01:40:19;;;;;;;7.22;1.00;;;;;;;11.31;100.00;96435.84;5039420;28;20030;-77
2024/04/01 01:42:45;;;;;;;10.70;1.20;;;;;;;11.26;100.00;96420.41;5014202;28;20072;-77
2024/04/01 01:45:11;;;;;;;4.50;1.20;;;;;;;11.16;100.00;96418.50;5020439;28;20028;-78
2024/04/01 01:47:37;;;;;;;4.82;1.35;;;;;;;11.18;100.00;96437.97;5041956;28;20401;-78
2024/04/01 01:50:05;;;;;;;6.35;1.38;;;;;;;11.19;100.00;96433.38;5021830;28;20035;-77
2024/04/01 01:52:31;;;;;;;3.65;1.00;;;;;;;11.14;100.00;96419.84;5041476;28;20033;-78
2024/04/01 01:54:56;;;;;;;7.13;1.40;;;;;;;11.12;100.00;96405.75;5017474;28;20101;-77
2024/04/01 01:57:22;;;;;;;5.68;1.10;;;;;;;11.13;100.00;96405.50;5036620;28;20032;-77
2024/04/01 01:59:48;;;;;;;6.07;1.00;;;;;;;11.12;100.00;96422.00;5023973;28;20013;-77
2024/04/01 02:02:15;;;;;;;6.10;1.00;;;;;;;11.10;100.00;96424.94;5041730;28;20048;-77
2024/04/01 02:04:40;;;;;;;7.93;1.25;;;;;;;10.93;100.00;96417.03;5026658;28;20208;-78
2024/04/01 02:07:05;;;;;;;10.48;1.13;;;;;;;10.77;100.00;96403.69;5038878;28;20017;-78
2024/04/01 02:09:34;;;;;;;8.25;1.52;;;;;;;10.77;100.00;96414.53;5030506;28;20036;-78
2024/04/01 02:12:00;;;;;;;7.00;1.30;;;;;;;10.75;100.00;96434.53;5024950;28;20025;-78
2024/04/01 02:14:26;;;;;;;3.08;1.30;;;;;;;10.66;100.00;96427.19;5019870;28;20079;-78
2024/04/01 02:16:51;;;;;;;5.18;1.40;;;;;;;10.60;100.00;96436.34;5041036;28;20025;-78
2024/04/01 02:19:17;;;;;;;6.55;1.05;;;;;;;10.56;100.00;96455.00;5040976;28;20320;-79
2024/04/01 02:21:45;;;;;;;6.10;1.45;;;;;;;10.56;100.00;96455.00;5023623;28;20021;-78
2024/04/01 02:24:11;;;;;;;7.00;1.63;;;;;;;10.56;100.00;96449.59;5019551;28;20014;-78
2024/04/01 02:26:37;;;;;;;6.07;1.20;;;;;;;10.51;100.00;96422.53;5021662;28;20021;-78
2024/04/01 02:29:04;;;;;;;11.07;1.40;;;;;;;10.45;100.00;96381.13;5021860;28;20014;-78
2024/04/01 02:31:29;;;;;;;9.68;1.70;;;;;;;10.39;100.00;96367.84;5026736;28;20025;-78
2024/04/01 02:33:55;;;;;;;10.27;1.17;;;;;;;10.39;100.00;96371.34;5036681;28;20115;-77
2024/04/01 02:36:20;;;;;;;6.85;1.52;;;;;;;10.37;100.00;96373.50;5026300;28;20021;-78
2024/04/01 02:38:49;;;;;;;7.35;1.42;;;;;;;10.22;100.00;96362.59;5027593;28;20213;-78
2024/04/01 02:41:14;;;;;;;11.75;1.40;;;;;;;10.23;100.00;96394.72;5018719;28;20072;-78
2024/04/01 02:43:39;;;;;;;11.55;1.40;;;;;;;10.13;100.00;96394.66;5040033;28;20321;-78
2024/04/01 02:46:05;;;;;;;8.38;1.40;;;;;;;10.05;100.00;96431.06;5036971;28;20359;-78
2024/04/01 02:48:30;;;;;;;10.25;1.65;;;;;;;10.09;100.00;96459.22;5039110;28;20025;-78
2024/04/01 02:50:56;;;;;;;7.53;1.95;;;;;;;10.04;100.00;96464.56;5038508;28;20021;-78
2024/04/01 02:53:22;;;;;;;5.40;1.77;;;;;;;10.10;100.00;96465.44;5021573;28;20075;-78
2024/04/01 02:55:47;;;;;;;8.48;1.77;;;;;;;10.07;100.00;96442.44;5026656;28;20021;-77
2024/04/01 02:58:12;;;;;;;9.35;1.75;;;;;;;10.13;100.00;96432.47;5026548;28;20209;-78
2024/04/01 03:00:37;;;;;;;11.00;2.15;;;;;;;10.00;100.00;96390.50;5022843;28;20028;-78
2024/04/01 03:03:03;;;;;;;8.60;1.88;;;;;;;10.10;100.00;96400.59;5024158;28;20095;-78
2024/04/01 03:05:28;;;;;;;7.07;1.85;;;;;;;10.03;100.00;96394.59;5018267;28;20021;-79
2024/04/01 03:07:54;;;;;;;4.70;2.13;;;;;;;10.08;100.00;96381.13;5020849;28;20040;-78
2024/04/01 03:10:19;;;;;;;4.13;1.50;;;;;;;10.19;100.00;96414.41;5016565;28;20100;-78
2024/04/01 03:12:47;;;;;;;8.70;1.70;;;;;;;10.19;100.00;96409.84;5018784;28;20092;-78
2024/04/01 03:15:16;;;;;;;7.55;1.50;;;;;;;10.14;100.00;96395.47;5024307;28;20228;-78
2024/04/01 03:17:43;;;;;;;7.20;1.30;;;;;;;10.26;100.00;96399.59;5022740;28;20018;-78
2024/04/01 03:20:10;;;;;;;6.65;1.20;;;;;;;10.15;100.00;96381.72;5040620;28;20021;-78
2024/04/01 03:22:35;;;;;;;10.27;1.33;;;;;;;10.20;100.00;96381.75;5024042;28;20018;-78
2024/04/01 03:25:01;;;;;;;6.95;1.30;;;;;;;10.19;100.00;96374.72;5016337;28;20384;-78
2024/04/01 03:27:26;;;;;;;8.45;1.60;;;;;;;10.20;100.00;96379.03;5026780;28;20044;-78
2024/04/01 03:29:51;;;;;;;7.50;1.80;;;;;;;10.15;100.00;96386.31;5029101;28;20021;-79
2024/04/01 03:32:17;;;;;;;8.95;1.60;;;;;;;10.10;100.00;96397.88;5035889;28;20023;-78
2024/04/01 03:34:46;;;;;;;8.73;1.35;;;;;;;10.08;100.00;96384.63;5032989;28;20044;-78
2024/04/01 03:37:11;;;;;;;7.32;1.48;;;;;;;10.22;100.00;96398.53;5022526;28;20067;-78
2024/04/01 03:39:37;;;;;;;4.63;1.38;;;;;;;10.11;100.00;96396.81;5041429;28;20241;-78
2024/04/01 03:42:02;;;;;;;4.50;1.35;;;;;;;10.16;100.00;96394.13;5044491;28;20021;-78
2024/04/01 03:44:28;;;;;;;5.47;1.20;;;;;;;10.18;100.00;96394.69;5012557;28;20057;-78
2024/04/01 03:46:53;;;;;;;7.22;1.63;;;;;;;9.95;100.00;96390.47;5020767;28;20018;-78
2024/04/01 03:49:18;;;;;;;3.90;1.30;;;;;;;10.01;100.00;96429.16;5016939;28;20030;-78
2024/04/01 03:51:44;;;;;;;8.48;1.67;;;;;;;9.72;100.00;96417.81;5037909;28;20028;-78
2024/04/01 03:54:09;;;;;;;5.75;1.45;;;;;;;9.74;100.00;96435.41;5017508;28;20071;-78
2024/04/01 03:56:35;;;;;;;8.90;1.83;;;;;;;9.64;100.00;96413.69;5019768;28;20025;-78
2024/04/01 03:59:00;;;;;;;13.38;1.80;;;;;;;9.73;100.00;96422.97;5024415;28;20013;-78
2024/04/01 04:01:28;;;;;;;5.68;1.70;;;;;;;9.90;100.00;96427.44;5041244;28;20140;-78
2024/04/01 04:03:54;;;;;;;10.30;1.80;;;;;;;9.91;100.00;96424.50;5021795;28;20025;-78
2024/04/01 04:06:19;;;;;;;6.95;1.83;;;;;;;9.85;100.00;96418.25;5021210;28;20200;-79
2024/04/01 04:08:47;;;;;;;5.80;1.77;;;;;;;9.75;100.00;96404.66;5040981;28;20021;-78
2024/04/01 04:11:13;;;;;;;5.40;1.80;;;;;;;9.86;100.00;96422.56;5022766;28;20317;-79
2024/04/01 04:13:38;;;;;;;9.98;1.98;;;;;;;9.77;100.00;96380.91;5018092;28;20017;-78
2024/04/01 04:16:04;;;;;;;10.88;1.92;;;;;;;9.88;100.00;96393.41;5025592;28;20067;-78
2024/04/01 04:18:29;;;;;;;3.83;1.58;;;;;;;9.80;100.00;96406.59;5018558;28;20013;-78
2024/04/01 04:20:54;;;;;;;6.72;1.90;;;;;;;9.83;100.00;96417.66;5016511;28;20033;-77
2024/04/01 04:23:23;;;;;;;6.28;1.80;;;;;;;9.87;100.00;96418.78;5019335;28;20070;-78
2024/04/01 04:25:49;;;;;;;5.55;1.60;;;;;;;9.86;100.00;96392.03;5030570;28;20030;-78
2024/04/01 04:28:14;;;;;;;12.18;2.17;;;;;;;9.87;100.00;96393.66;5021809;28;20087;-78
2024/04/01 04:30:40;;;;;;;6.38;2.05;;;;;;;9.84;100.00;96399.56;5021482;28;20032;-78
2024/04/01 04:33:05;;;;;;;8.02;2.40;;;;;;;9.87;100.00;96407.97;5019511;28;20026;-78
2024/04/01 04:35:31;;;;;;;5.43;2.10;;;;;;;9.86;100.00;96417.16;5040445;28;20025;-77
2024/04/01 04:37:56;;;;;;;9.55;2.10;;;;;;;9.93;100.00;96435.84;5022646;28;20018;-78
2024/04/01 04:40:22;;;;;;;7.28;1.85;;;;;;;9.88;100.00;96409.63;5039083;28;20021;-78
2024/04/01 04:42:47;;;;;;;9.95;1.50;;;;;;;9.95;100.00;96405.88;5023601;28;20024;-78
2024/04/01 04:45:12;;;;;;;8.57;1.77;;;;;;;10.06;100.00;96418.38;5046701;28;20049;-78
2024/04/01 04:47:37;;;;;;;5.80;1.30;;;;;;;10.01;100.00;96381.34;5036438;28;20017;-78
2024/04/01 04:50:03;;;;;;;9.90;1.70;;;;;;;9.94;100.00;96358.34;5040178;28;20045;-77
2024/04/01 04:52:28;;;;;;;7.53;1.52;;;;;;;9.97;100.00;96376.72;5030262;28;20052;-78
2024/04/01 04:54:54;;;;;;;2.28;1.10;;;;;;;10.02;100.00;96404.59;5037040;28;20037;-78
2024/04/01 04:57:19;;;;;;;6.82;1.30;;;;;;;10.02;100.00;96407.28;5040285;28;20063;-78
2024/04/01 04:59:46;;;;;;;5.80;1.17;;;;;;;10.08;100.00;96405.44;5024129;28;20039;-78
2024/04/01 05:02:12;;;;;;;5.43;1.40;;;;;;;9.99;100.00;96379.97;5023554;28;20332;-78
2024/04/01 05:04:37;;;;;;;5.72;1.55;;;;;;;10.12;100.00;96401.16;5038177;28;20040;-78
2024/04/01 05:07:03;;;;;;;5.50;1.23;;;;;;;10.04;100.00;96424.06;5043850;28;20309;-78
2024/04/01 05:09:29;;;;;;;3.30;1.42;;;;;;;9.99;100.00;96404.28;5023793;28;20048;-78
2024/04/01 05:11:55;;;;;;;7.32;1.20;;;;;;;9.95;100.00;96446.38;5045178;28;20091;-78
2024/04/01 05:14:21;;;;;;;9.77;1.40;;;;;;;9.69;100.00;96419.16;5019529;28;20044;-79
2024/04/01 05:16:47;;;;;;;3.03;0.98;;;;;;;9.96;100.00;96453.44;5026624;28;20029;-78
2024/04/01 05:19:13;;;;;;;3.70;1.25;;;;;;;10.09;100.00;96463.81;5030705;28;20020;-79
2024/04/01 05:21:38;;;;;;;3.15;1.13;;;;;;;10.02;100.00;96452.41;5034108;28;20049;-79
2024/04/01 05:24:04;;;;;;;3.10;1.40;;;;;;;10.04;100.00;96463.75;5054051;28;20117;-79
2024/04/01 05:26:29;;;;;;;3.30;1.08;;;;;;;10.08;100.00;96457.56;5036966;28;20088;-78
2024/04/01 05:28:55;;;;;;;3.13;1.17;;;;;;;10.13;100.00;96464.91;5026736;28;20281;-79
2024/04/01 05:31:20;;;;;;;4.57;1.80;;;;;;;10.10;100.00;96476.22;5019413;28;20457;-79
2024/04/01 05:33:45;;;;;;;4.20;2.28;;;;;;;10.04;100.00;96520.50;5018502;28;20100;-79
2024/04/01 05:36:11;;;;;;;6.72;2.90;;;;;;;9.91;100.00;96526.31;5023658;28;20029;-78
2024/04/01 05:38:36;;;;;;;7.03;2.42;;;;;;;9.91;100.00;96537.13;5024081;28;20040;-79
2024/04/01 05:41:02;;;;;;;6.20;3.20;;;;;;;10.08;100.00;96581.84;5038747;22;20014;-64
2024/04/01 05:43:27;;;;;;;9.02;4.85;;;;;;;10.05;100.00;96573.44;5005841;28;20128;-64
2024/04/01 05:45:53;;;;;;;8.27;4.35;;;;;;;10.10;100.00;96549.19;5022223;28;20040;-65
2024/04/01 05:48:18;;;;;;;8.00;4.80;;;;;;;10.08;100.00;96544.03;5029028;28;20106;-64
2024/04/01 05:50:51;;;;;;;8.32;5.13;;;;;;;10.07;100.00;96552.41;5028672;28;20044;-65
2024/04/01 05:53:17;;;;;;;9.13;5.78;;;;;;;10.09;100.00;96550.25;5031307;28;20063;-60
2024/04/01 05:55:42;;;;;;;9.20;5.72;;;;;;;10.06;100.00;96550.75;5059801;23;20040;-76
2024/04/01 05:58:08;;;;;;;10.95;5.55;;;;;;;10.00;100.00;96554.47;5044014;28;20036;-76
2024/04/01 06:00:34;;;;;;;11.10;5.22;;;;;;;10.06;100.00;96551.59;5043313;28;20033;-75
2024/04/01 06:03:00;;;;;;;7.53;5.07;;;;;;;9.99;100.00;96545.56;5050201;28;20036;-75
2024/04/01 06:05:26;;;;;;;5.50;4.60;;;;;;;9.94;100.00;96563.63;5061872;28;20076;-80
2024/04/01 06:07:53;;;;;;;6.25;4.20;;;;;;;9.91;100.00;96583.03;5050303;28;20038;-79
2024/04/01 06:10:18;;;;;;;5.60;4.05;;;;;;;9.96;100.00;96583.91;5051041;28;20043;-76
2024/04/01 06:12:44;;;;;;;5.93;4.30;;;;;;;9.94;100.00;96571.72;5051400;28;20021;-76
2024/04/01 06:15:09;;;;;;;6.78;4.28;;;;;;;9.84;100.00;96586.72;5047986;28;20029;-77
2024/04/01 06:17:35;;;;;;;6.78;4.47;;;;;;;9.85;100.00;96572.16;5038488;28;20025;-77
2024/04/01 06:20:00;;;;;;;5.85;4.22;;;;;;;10.06;100.00;96610.19;5050979;28;20343;-76
2024/04/01 06:22:27;;;;;;;6.38;4.28;;;;;;;9.92;100.00;96598.97;5050287;28;20033;-77
2024/04/01 06:24:52;;;;;;;5.22;4.18;;;;;;;9.95;100.00;96600.34;5048673;28;20044;-78
2024/04/01 06:27:17;;;;;;;4.78;4.10;;;;;;;9.95;100.00;96624.66;5045061;28;20025;-77
2024/04/01 06:29:43;;;;;;;8.18;4.10;;;;;;;9.85;100.00;96620.78;5037690;28;20135;-74
2024/04/01 06:32:08;;;;;;;4.75;3.80;;;;;;;9.67;100.00;96594.09;5061546;28;20417;-79
2024/04/01 06:34:33;;;;;;;7.00;4.60;;;;;;;10.01;100.00;96658.78;5044695;28;20044;-79
2024/04/01 06:36:59;;;;;;;5.97;3.78;;;;;;;9.90;100.00;96635.41;5057169;28;20367;-77
2024/04/01 06:39:24;;;;;;;5.18;4.00;;;;;;;9.98;100.00;96661.97;5045064;28;20032;-75
2024/04/01 06:41:50;;;;;;;8.20;4.38;;;;;;;9.94;100.00;96661.66;5046020;28;20255;-75
2024/04/01 06:44:16;;;;;;;9.77;4.80;;;;;;;9.94;100.00;96660.84;5047067;28;20033;-73
2024/04/01 06:46:41;;;;;;;6.15;4.93;;;;;;;9.83;100.00;96651.81;5060047;28;20039;-76
2024/04/01 06:49:06;;;;;;;6.60;4.75;;;;;;;9.88;100.00;96662.69;5053132;28;20096;-73
2024/04/01 06:51:32;;;;;;;7.35;4.70;;;;;;;9.81;100.00;96649.34;5046678;28;20029;-73
2024/04/01 06:53:57;;;;;;;8.85;4.47;;;;;;;9.87;100.00;96669.94;5056666;28;20061;-75
2024/04/01 06:56:23;;;;;;;9.13;4.78;;;;;;;10.07;100.00;96695.59;5034828;28;20036;-75
2024/04/01 06:58:48;;;;;;;6.30;4.85;;;;;;;9.90;100.00;96682.13;5033764;28;20021;-72
2024/04/01 07:01:14;;;;;;;7.05;4.70;;;;;;;10.06;100.00;96712.84;5056186;28;20382;-72
2024/04/01 07:03:39;;;;;;;6.75;4.03;;;;;;;9.92;100.00;96690.81;5046009;28;20051;-71
2024/04/01 07:06:04;;;;;;;4.97;2.88;;;;;;;10.07;100.00;96699.09;5051484;28;20056;-69
2024/04/01 07:08:30;;;;;;;3.45;2.50;;;;;;;9.97;100.00;96692.75;5052424;28;20056;-69
2024/04/01 07:10:55;;;;;;;3.25;2.45;;;;;;;10.15;100.00;96689.75;5044135;28;20051;-70
2024/04/01 07:13:20;;;;;;;4.05;2.20;;;;;;;10.01;100.00;96683.91;5054504;28;20036;-70
2024/04/01 07:15:46;;;;;;;2.70;1.70;;;;;;;10.03;100.00;96680.94;5042780;28;20028;-70
2024/04/01 07:18:11;;;;;;;3.67;1.88;;;;;;;10.09;100.00;96686.16;5052038;28;20021;-70
2024/04/01 07:20:36;;;;;;;3.63;1.70;;;;;;;10.06;100.00;96735.31;5057770;28;20067;-70
2024/04/01 07:23:01;;;;;;;2.50;1.95;;;;;;;10.00;100.00;96725.47;5057192;28;20028;-71
2024/04/01 07:25:27;;;;;;;2.53;2.00;;;;;;;9.93;100.00;96703.25;5061750;28;20051;-70
2024/04/01 07:27:52;;;;;;;1.90;1.60;;;;;;;9.88;100.00;96738.31;5055771;28;20036;-71
2024/04/01 07:30:17;;;;;;;2.88;1.73;;;;;;;9.97;100.00;96741.38;5055673;28;20021;-70
2024/04/01 07:32:43;;;;;;;2.65;1.60;;;;;;;9.95;100.00;96727.31;5061456;28;20335;-70
2024/04/01 07:35:11;;;;;;;2.40;1.80;;;;;;;9.91;100.00;96715.38;5062247;28;20024;-69
2024/04/01 07:37:36;;;;;;;3.20;1.77;;;;;;;9.91;100.00;96708.09;5052495;28;20071;-71
2024/04/01 07:40:02;;;;;;;2.83;1.90;;;;;;;10.10;100.00;96714.00;5042760;28;20021;-73
2024/04/01 07:42:27;;;;;;;4.20;2.17;;;;;;;9.87;100.00;96726.66;5046653;28;20029;-78
2024/04/01 07:44:53;;;;;;;3.70;2.17;;;;;;;9.93;100.00;96757.28;5050709;28;20155;-71
2024/04/01 07:47:19;;;;;;;7.10;2.40;;;;;;;9.79;100.00;96762.19;5060355;28;20035;-72
2024/04/01 07:49:45;;;;;;;4.63;1.92;;;;;;;9.76;100.00;96765.41;5059139;28;20021;-71
2024/04/01 07:52:10;;;;;;;2.80;1.92;;;;;;;9.73;100.00;96779.41;5057750;28;20359;-71
2024/04/01 07:54:36;;;;;;;3.50;2.47;;;;;;;9.89;100.00;96799.34;5060152;28;20052;-71
2024/04/01 07:57:02;;;;;;;4.30;1.88;;;;;;;9.86;100.00;96806.06;5045911;28;20021;-71
2024/04/01 07:59:29;;;;;;;2.22;1.50;;;;;;;9.91;100.00;96823.41;5056405;28;20013;-70
2024/04/01 08:01:54;;;;;;;2.15;1.67;;;;;;;9.92;100.00;96830.44;5056955;28;20031;-71
2024/04/01 08:04:19;;;;;;;1.73;1.23;;;;;;;9.85;100.00;96836.84;5053270;28;20021;-70
2024/04/01 08:06:45;;;;;;;1.05;0.88;;;;;;;9.74;100.00;96835.03;5050999;28;20022;-71
2024/04/01 08:09:10;;;;;;;2.22;1.00;;;;;;;9.67;100.00;96858.72;5051448;28;20029;-77
2024/04/01 08:11:35;;;;;;;1.52;1.10;;;;;;;9.52;100.00;96848.47;5043088;28;20087;-76
2024/04/01 08:14:01;;;;;;;0.90;0.73;;;;;;;9.41;100.00;96863.69;5034139;28;20017;-78
2024/04/01 08:16:26;;;;;;;1.05;0.95;;;;;;;9.51;100.00;96879.22;5031600;28;20036;-79
2024/04/01 08:18:51;;;;;;;1.77;0.70;;;;;;;9.32;100.00;96875.91;5036143;28;20100;-79
2024/04/01 08:21:17;;;;;;;0.75;0.52;;;;;;;9.39;100.00;96898.19;5051116;28;20042;-77
2024/04/01 08:23:43;;;;;;;2.25;0.30;;;;;;;9.28;100.00;96907.16;5036310;28;20054;-79
2024/04/01 08:26:09;;;;;;;3.20;0.28;;;;;;;9.31;100.00;96919.34;5042288;28;20033;-78
2024/04/01 08:28:34;;;;;;;2.72;0.40;;;;;;;9.38;100.00;96938.91;5040454;28;20021;-75
2024/04/01 08:30:59;;;;;;;0.57;0.38;;;;;;;9.26;100.00;96938.94;5047937;28;20100;-82
2024/04/01 08:33:25;;;;;;;1.75;0.30;;;;;;;9.09;100.00;96933.50;5045183;28;20093;-80
2024/04/01 08:35:51;;;;;;;0.20;0.20;;;;;;;9.38;100.00;96944.31;5045772;28;20029;-83
2024/04/01 08:38:16;;;;;;;0.75;0.30;;;;;;;9.35;100.00;96939.38;5052340;28;20057;-80
2024/04/01 08:40:57;;;;;;;0.40;0.10;;;;;;;9.46;100.00;96959.28;5043789;28;20028;-79
2024/04/01 08:43:39;;;;;;;0.90;0.30;;;;;;;9.40;100.00;96950.28;5042661;28;20072;-78
2024/04/01 08:46:05;;;;;;;1.05;0.32;;;;;;;9.39;100.00;96949.47;5040945;28;20056;-76
2024/04/01 08:48:31;;;;;;;0.25;0.20;;;;;;;9.62;100.00;96966.63;5058137;28;20032;-76
2024/04/01 08:51:03;;;;;;;0.15;0.10;;;;;;;9.49;100.00;96967.72;5038073;28;20032;-77
2024/04/01 08:53:50;;;;;;;0.45;0.20;;;;;;;9.60;100.00;96969.56;5035215;28;20052;-71
2024/04/01 08:56:17;;;;;;;0.25;0.15;;;;;;;9.80;100.00;96979.91;5051693;28;20043;-75
2024/04/01 08:58:42;;;;;;;0.30;0.20;;;;;;;9.95;100.00;96975.81;5040710;28;20028;-73
2024/04/01 09:01:07;;;;;;;0.80;0.30;;;;;;;10.01;100.00;96977.56;5033908;28;20033;-74
2024/04/01 09:03:33;;;;;;;0.50;0.22;;;;;;;9.93;100.00;96980.63;5052751;28;20033;-76
2024/04/01 09:05:58;;;;;;;0.88;0.40;;;;;;;10.06;100.00;96950.59;5058863;28;20035;-74
2024/04/01 09:08:24;;;;;;;0.77;0.15;;;;;;;10.01;100.00;96974.88;5037900;28;20155;-73
2024/04/01 09:10:53;;;;;;;0.40;0.20;;;;;;;10.40;100.00;96966.84;5050899;28;20021;-76
2024/04/01 09:13:21;;;;;;;0.28;0.13;;;;;;;10.42;100.00;96952.00;5049476;28;20340;-74
2024/04/01 09:15:48;;;;;;;1.20;0.40;;;;;;;10.57;100.00;96964.13;5050352;28;20111;-75
2024/04/01 09:18:14;;;;;;;1.23;0.35;;;;;;;10.78;100.00;96965.22;5048343;28;20045;-77
2024/04/01 09:20:44;;;;;;;1.52;0.80;;;;;;;10.88;100.00;96931.03;5050550;28;20182;-75
2024/04/01 09:23:09;;;;;;;2.70;1.50;;;;;;;11.10;100.00;96955.34;5047080;28;20436;-76
2024/04/01 09:25:35;;;;;;;1.73;0.80;;;;;;;11.59;100.00;96971.63;5032513;28;20032;-75
2024/04/01 09:28:01;;;;;;;2.85;0.10;;;;;;;11.61;100.00;96960.56;5041020;28;20021;-75
2024/04/01 09:30:27;;;;;;;0.45;0.10;;;;;;;11.35;100.00;96975.69;5047802;28;20143;-73
2024/04/01 09:32:52;;;;;;;0.20;0.10;;;;;;;11.11;100.00;96948.09;5059254;28;20028;-73
2024/04/01 09:35:18;;;;;;;1.13;0.10;;;;;;;10.66;100.00;96971.59;5055435;28;20127;-75
2024/04/01 09:37:44;;;;;;;0.10;0.10;;;;;;;10.78;100.00;96982.28;5051042;28;20083;-77
2024/04/01 09:40:10;;;;;;;0.15;0.05;;;;;;;10.57;100.00;96986.56;5060685;28;20041;-77
2024/04/01 09:42:36;;;;;;;2.67;0.20;;;;;;;10.37;100.00;97006.00;5049959;28;20025;-76
2024/04/01 09:45:04;;;;;;;0.50;0.10;;;;;;;10.19;100.00;96992.69;5044067;28;20116;-77
2024/04/01 09:47:30;;;;;;;1.50;0.22;;;;;;;10.10;100.00;96973.38;5050249;28;20017;-76
2024/04/01 09:49:57;;;;;;;0.50;0.28;;;;;;;10.18;100.00;96991.88;5039682;28;20140;-75
2024/04/01 09:52:22;;;;;;;0.40;0.10;;;;;;;10.11;100.00;96988.50;5036159;28;20048;-76
2024/04/01 09:54:50;;;;;;;0.10;0.10;;;;;;;10.07;100.00;96990.91;5048368;28;20017;-77
2024/04/01 09:57:34;;;;;;;0.30;0.20;;;;;;;10.35;100.00;97040.59;5038202;28;20020;-76
2024/04/01 10:00:13;;;;;;;0.25;0.15;;;;;;;10.10;100.00;97032.81;5042406;28;20312;-76
2024/04/01 10:03:25;;;;;;;0.40;0.10;;;;;;;10.31;100.00;97042.94;5041766;28;20025;-76
2024/04/01 10:06:26;;;;;;;0.60;0.20;;;;;;;10.35;100.00;97042.44;4987730;28;20029;-77
2024/04/01 10:09:10;;;;;;;0.20;0.10;;;;;;;10.24;100.00;97044.97;5015825;28;20028;-75
2024/04/01 10:11:59;;;;;;;2.67;0.60;;;;;;;10.35;100.00;97055.97;5038831;28;20113;-75
2024/04/01 10:14:42;;;;;;;0.32;0.20;;;;;;;10.23;100.00;97037.91;5034082;28;20346;-76
2024/04/01 10:17:27;;;;;;;0.55;0.43;;;;;;;10.62;100.00;97066.97;5040267;28;20033;-75
2024/04/01 10:20:14;;;;;;;2.95;0.82;;;;;;;10.54;100.00;97068.19;5042993;28;20051;-75
2024/04/01 10:23:08;;;;;;;1.15;0.63;;;;;;;10.61;100.00;97070.72;5040806;28;20033;-76
2024/04/01 10:26:32;;;;;;;1.88;0.85;;;;;;;10.69;100.00;97052.22;5044279;28;20024;-78
2024/04/01 10:29:19;;;;;;;0.55;0.30;;;;;;;11.04;100.00;97048.38;4987833;28;20563;-76
2024/04/01 10:32:00;;;;;;;0.55;0.20;;;;;;;11.35;100.00;97046.91;4987356;28;20034;-77
2024/04/01 10:34:47;;;;;;;0.10;0.10;;;;;;;11.21;100.00;97061.88;5050846;28;20032;-77
2024/04/01 10:37:27;;;;;;;0.10;0.10;;;;;;;10.91;100.00;97070.38;5043807;28;20386;-78
2024/04/01 10:40:04;;;;;;;0.20;0.08;;;;;;;10.94;100.00;97080.72;5045600;28;20028;-77
2024/04/01 10:42:47;;;;;;;0.38;0.10;;;;;;;10.73;100.00;97080.38;5061524;28;20308;-79
2024/04/01 10:45:49;;;;;;;0.60;0.20;;;;;;;10.68;100.00;97093.84;5044242;28;20100;-79
2024/04/01 10:48:19;;;;;;;0.20;0.10;;;;;;;10.59;100.00;97095.31;5047506;28;20320;-78
2024/04/01 10:51:03;;;;;;;1.02;0.30;;;;;;;10.44;100.00;97114.00;5049376;28;20054;-80
2024/04/01 10:53:34;;;;;;;0.47;0.20;;;;;;;10.56;100.00;97122.84;5048518;28;20040;-71
2024/04/01 10:56:30;;;;;;;0.65;0.20;;;;;;;10.60;100.00;97104.25;5043059;28;20088;-73
2024/04/01 10:59:10;;;;;;;0.98;0.20;;;;;;;10.64;100.00;97086.47;5042093;28;20312;-73
2024/04/01 11:01:48;;;;;;;0.52;0.10;;;;;;;10.72;100.00;97123.94;5053244;28;20267;-73
2024/04/01 11:04:29;;;;;;;0.13;0.10;;;;;;;10.90;100.00;97112.03;5043705;28;20143;-72
2024/04/01 11:07:06;;;;;;;0.30;0.20;;;;;;;11.06;100.00;97126.63;5057560;28;20062;-73
2024/04/01 11:10:08;;;;;;;0.68;0.20;;;;;;;11.06;100.00;97116.63;5043960;28;20320;-74
2024/04/01 11:12:50;;;;;;;1.48;0.40;;;;;;;11.35;100.00;97102.94;5010321;28;20040;-73
2024/04/01 11:15:16;;;;;;;0.45;0.20;;;;;;;11.51;100.00;97112.91;5041274;28;20039;-74
2024/04/01 11:17:44;;;;;;;0.95;0.30;;;;;;;11.65;100.00;97104.41;5040633;28;20068;-72
2024/04/01 11:20:18;;;;;;;0.60;0.30;;;;;;;11.66;100.00;97093.34;5053205;28;20047;-73
2024/04/01 11:23:25;;;;;;;0.57;0.30;;;;;;;12.30;100.00;97124.44;5041086;28;20251;-72
2024/04/01 11:26:00;;;;;;;0.30;0.15;;;;;;;12.30;100.00;97122.53;5057820;28;20037;-74
2024/04/01 11:28:49;;;;;;;0.43;0.15;;;;;;;11.79;100.00;97113.81;5056241;28;20312;-74
2024/04/01 11:31:18;;;;;;;0.30;0.22;;;;;;;11.59;100.00;97117.88;5045583;28;20032;-74